createdAt,value
2019-05-06T00:01:07.690Z,17.60
2019-05-06T00:03:45.125Z,17.80
2019-05-06T00:09:01.367Z,17.80
2019-05-06T00:11:44.870Z,17.80
2019-05-06T00:14:23.553Z,17.80
2019-05-06T00:17:03.894Z,17.80
2019-05-06T00:19:45.369Z,17.90
2019-05-06T00:22:24.790Z,18.00
2019-05-06T00:25:10.677Z,18.00
2019-05-06T00:28:05.863Z,18.00
2019-05-06T00:30:43.951Z,18.10
2019-05-06T00:33:21.499Z,18.10
2019-05-06T00:36:01.387Z,18.10
2019-05-06T00:41:25.359Z,18.60
2019-05-06T00:44:05.528Z,18.30
2019-05-06T00:49:18.106Z,18.60
2019-05-06T00:51:55.792Z,18.70
2019-05-06T00:54:34.181Z,18.70
2019-05-06T00:57:13.974Z,19.20
2019-05-06T01:02:26.786Z,18.90
2019-05-06T01:05:07.371Z,18.80
2019-05-06T01:07:54.738Z,16.40
2019-05-06T01:10:34.394Z,18.80
2019-05-06T01:13:28.063Z,19.00
2019-05-06T01:16:06.122Z,19.10
2019-05-06T01:18:45.453Z,19.00
2019-05-06T01:21:23.782Z,19.00
2019-05-06T01:24:03.783Z,19.10
2019-05-06T01:26:44.170Z,19.10
2019-05-06T01:29:24.201Z,19.50
2019-05-06T01:32:03.523Z,19.20
2019-05-06T01:34:40.432Z,19.30
2019-05-06T01:37:24.037Z,19.60
2019-05-06T01:40:14.491Z,19.50
2019-05-06T01:43:11.270Z,19.50
2019-05-06T01:45:49.167Z,19.40
2019-05-06T01:48:44.323Z,19.20
2019-05-06T01:51:24.335Z,19.80
2019-05-06T01:54:03.746Z,19.70
2019-05-06T01:56:44.195Z,19.80
2019-05-06T01:59:21.201Z,19.80
2019-05-06T02:02:02.225Z,20.00
2019-05-06T02:04:44.376Z,20.00
2019-05-06T02:07:24.081Z,20.10
2019-05-06T02:10:03.968Z,20.10
2019-05-06T02:12:44.245Z,20.20
2019-05-06T02:15:23.886Z,20.20
2019-05-06T02:18:03.919Z,20.20
2019-05-06T02:20:44.425Z,20.30
2019-05-06T02:23:24.138Z,20.90
2019-05-06T02:26:02.116Z,20.40
2019-05-06T02:28:43.553Z,20.40
2019-05-06T02:31:37.056Z,20.50
2019-05-06T02:34:25.124Z,20.70
2019-05-06T02:37:25.378Z,20.80
2019-05-06T02:45:16.093Z,20.80
2019-05-06T02:51:07.185Z,20.80
2019-05-06T02:53:45.008Z,21.00
2019-05-06T02:58:57.706Z,21.20
2019-05-06T03:01:35.668Z,21.30
2019-05-06T03:09:26.644Z,21.60
2019-05-06T03:12:06.496Z,21.70
2019-05-06T03:14:44.188Z,22.00
2019-05-06T03:17:23.739Z,22.10
2019-05-06T03:20:04.188Z,21.90
2019-05-06T03:25:33.194Z,22.10
2019-05-06T03:28:13.079Z,22.00
2019-05-06T03:30:55.901Z,21.70
2019-05-06T03:33:47.474Z,21.60
2019-05-06T03:36:18.608Z,21.50
2019-05-06T03:38:48.471Z,21.20
2019-05-06T03:41:26.714Z,21.40
2019-05-06T03:47:05.276Z,21.90
2019-05-06T03:49:43.149Z,21.50
2019-05-06T03:52:23.251Z,22.00
2019-05-06T03:55:03.623Z,21.90
2019-05-06T03:57:42.848Z,22.30
2019-05-06T04:00:23.831Z,22.80
2019-05-06T04:03:03.122Z,22.10
2019-05-06T04:05:43.758Z,22.50
2019-05-06T04:08:24.171Z,22.30
2019-05-06T04:16:23.068Z,22.70
2019-05-06T04:28:19.042Z,22.70
2019-05-06T04:30:59.215Z,23.10
2019-05-06T04:33:37.192Z,23.20
2019-05-06T04:44:53.924Z,23.50
2019-05-06T04:52:45.082Z,24.30
2019-05-06T04:55:22.823Z,23.50
2019-05-06T05:01:23.112Z,24.60
2019-05-06T05:04:03.476Z,24.80
2019-05-06T05:06:52.456Z,24.60
2019-05-06T05:09:32.405Z,24.50
2019-05-06T05:12:23.352Z,24.20
2019-05-06T05:15:07.371Z,24.30
2019-05-06T05:18:39.531Z,24.90
2019-05-06T05:26:33.063Z,25.80
2019-05-06T05:29:12.211Z,25.40
2019-05-06T05:31:52.826Z,25.40
2019-05-06T05:34:39.530Z,25.30
2019-05-06T05:37:09.250Z,25.10
2019-05-06T05:39:52.130Z,25.30
2019-05-06T05:42:54.687Z,25.10
2019-05-06T05:45:32.794Z,25.70
2019-05-06T05:50:55.005Z,25.70
2019-05-06T05:53:33.148Z,25.90
2019-05-06T06:01:23.260Z,26.00
2019-05-06T06:04:02.840Z,25.40
2019-05-06T06:06:39.300Z,25.90
2019-05-06T06:11:57.536Z,25.60
2019-05-06T06:18:05.284Z,26.00
2019-05-06T06:21:27.137Z,25.50
2019-05-06T06:24:03.159Z,25.10
2019-05-06T06:32:13.752Z,23.50
2019-05-06T06:35:12.113Z,24.00
2019-05-06T06:38:19.215Z,23.50
2019-05-06T06:40:56.961Z,22.60
2019-05-06T06:43:34.698Z,22.40
2019-05-06T06:48:52.617Z,22.00
2019-05-06T06:51:32.903Z,22.10
2019-05-06T06:57:08.868Z,21.30
2019-05-06T06:59:58.804Z,21.50
2019-05-06T07:02:43.238Z,21.50
2019-05-06T07:10:52.523Z,21.20
2019-05-06T07:13:32.764Z,21.10
2019-05-06T07:16:14.891Z,21.10
2019-05-06T07:18:52.792Z,21.00
2019-05-06T07:21:43.734Z,20.60
2019-05-06T07:24:23.428Z,20.80
2019-05-06T07:27:22.825Z,20.70
2019-05-06T07:30:02.999Z,20.90
2019-05-06T07:32:43.921Z,20.50
2019-05-06T07:35:23.794Z,20.50
2019-05-06T07:38:02.448Z,20.50
2019-05-06T07:40:41.905Z,20.40
2019-05-06T07:43:37.457Z,20.70
2019-05-06T07:46:23.738Z,20.10
2019-05-06T07:59:22.525Z,20.00
2019-05-06T08:02:02.109Z,20.50
2019-05-06T08:04:39.191Z,19.70
2019-05-06T08:09:53.226Z,19.20
2019-05-06T08:15:06.510Z,19.50
2019-05-06T08:17:45.091Z,19.30
2019-05-06T08:20:25.618Z,19.40
2019-05-06T08:23:12.618Z,19.70
2019-05-06T08:26:10.026Z,19.60
2019-05-06T08:28:41.451Z,19.10
2019-05-06T08:33:52.486Z,18.90
2019-05-06T08:36:37.788Z,19.90
2019-05-06T08:47:06.563Z,19.10
2019-05-06T08:50:07.273Z,19.10
2019-05-06T08:58:13.944Z,18.70
2019-05-06T09:01:08.334Z,18.80
2019-05-06T09:03:46.268Z,18.90
2019-05-06T09:06:31.540Z,18.50
2019-05-06T09:09:07.412Z,18.70
2019-05-06T09:11:45.616Z,18.80
2019-05-06T09:14:24.657Z,18.50
2019-05-06T09:17:04.549Z,18.50
2019-05-06T09:19:45.191Z,18.50
2019-05-06T09:22:23.494Z,18.50
2019-05-06T09:25:02.473Z,18.40
2019-05-06T09:28:02.339Z,18.50
2019-05-06T09:30:55.049Z,18.40
2019-05-06T09:39:45.196Z,18.10
2019-05-06T09:42:25.762Z,18.20
2019-05-06T09:45:05.212Z,18.20
2019-05-06T09:48:09.620Z,18.30
2019-05-06T09:50:49.732Z,18.20
2019-05-06T09:53:44.757Z,18.30
2019-05-06T09:56:33.924Z,18.00
2019-05-06T09:59:13.915Z,18.00
2019-05-06T10:01:54.274Z,17.90
2019-05-06T10:04:32.988Z,17.90
2019-05-06T10:07:11.901Z,17.90
2019-05-06T10:09:52.359Z,17.80
2019-05-06T10:12:29.167Z,17.80
2019-05-06T10:15:09.328Z,17.80
2019-05-06T10:17:48.727Z,17.80
2019-05-06T10:20:28.530Z,17.70
2019-05-06T10:23:08.365Z,17.70
2019-05-06T10:25:46.470Z,17.60
2019-05-06T10:28:52.339Z,17.60
2019-05-06T10:31:34.004Z,17.80
2019-05-06T10:34:15.619Z,17.50
2019-05-06T10:37:12.609Z,17.50
2019-05-06T10:39:44.571Z,17.50
2019-05-06T10:42:27.379Z,17.60
2019-05-06T10:47:51.129Z,17.50
2019-05-06T10:50:33.144Z,17.70
2019-05-06T10:56:28.466Z,17.30
2019-05-06T10:59:09.834Z,16.90
2019-05-06T11:01:50.216Z,17.50
2019-05-06T11:04:32.662Z,17.40
2019-05-06T11:09:45.401Z,17.00
2019-05-06T11:12:26.477Z,17.20
2019-05-06T11:15:05.912Z,17.20
2019-05-06T11:22:58.054Z,17.10
2019-05-06T11:25:37.919Z,17.30
2019-05-06T11:28:35.212Z,17.20
2019-05-06T11:31:33.189Z,17.10
2019-05-06T11:34:27.398Z,17.30
2019-05-06T11:37:25.165Z,17.10
2019-05-06T11:40:03.407Z,17.10
2019-05-06T11:42:43.888Z,17.00
2019-05-06T11:45:24.444Z,16.60
2019-05-06T11:48:04.410Z,17.60
2019-05-06T11:50:47.202Z,16.80
2019-05-06T11:53:28.933Z,16.90
2019-05-06T11:56:12.591Z,17.10
2019-05-06T11:58:55.698Z,16.80
2019-05-06T12:01:37.464Z,16.80
2019-05-06T12:04:28.788Z,16.70
2019-05-06T12:07:11.127Z,16.70
2019-05-06T12:09:54.292Z,17.00
2019-05-06T12:12:34.222Z,16.70
2019-05-06T12:15:30.157Z,16.60
2019-05-06T12:18:45.607Z,16.10
2019-05-06T12:20:52.614Z,16.50
2019-05-06T12:23:57.811Z,16.80
2019-05-06T12:26:38.694Z,16.40
2019-05-06T12:29:23.761Z,16.50
2019-05-06T12:32:39.814Z,16.40
2019-05-06T12:35:25.100Z,16.30
2019-05-06T12:38:30.096Z,16.30
2019-05-06T12:40:59.908Z,16.20
2019-05-06T12:44:03.803Z,16.20
2019-05-06T12:50:33.182Z,16.10
2019-05-06T12:53:20.165Z,16.00
2019-05-06T12:55:58.939Z,16.00
2019-05-06T13:01:54.047Z,16.00
2019-05-06T13:04:59.648Z,16.00
2019-05-06T13:07:52.845Z,16.00
2019-05-06T13:10:58.894Z,16.20
2019-05-06T13:13:59.723Z,16.10
2019-05-06T13:16:37.495Z,16.00
2019-05-06T13:19:22.899Z,16.00
2019-05-06T13:22:17.500Z,15.90
2019-05-06T13:24:58.240Z,15.80
2019-05-06T13:28:09.608Z,15.70
2019-05-06T13:34:09.210Z,15.70
2019-05-06T13:37:07.425Z,15.60
2019-05-06T13:39:46.633Z,15.50
2019-05-06T13:42:27.701Z,15.80
2019-05-06T13:45:08.750Z,15.40
2019-05-06T13:48:03.851Z,15.50
2019-05-06T13:50:44.231Z,15.40
2019-05-06T13:53:24.484Z,15.40
2019-05-06T13:56:04.662Z,15.40
2019-05-06T13:58:44.848Z,15.40
2019-05-06T14:01:25.283Z,15.30
2019-05-06T14:04:04.035Z,15.30
2019-05-06T14:06:47.713Z,15.20
2019-05-06T14:09:32.037Z,15.60
2019-05-06T14:12:06.369Z,15.20
2019-05-06T14:14:43.953Z,15.20
2019-05-06T14:17:23.024Z,15.30
2019-05-06T14:20:02.825Z,15.30
2019-05-06T14:22:43.891Z,15.30
2019-05-06T14:25:52.695Z,15.20
2019-05-06T14:28:39.582Z,15.20
2019-05-06T14:31:25.747Z,15.00
2019-05-06T14:34:05.628Z,15.20
2019-05-06T14:36:43.522Z,15.20
2019-05-06T14:39:44.767Z,15.30
2019-05-06T14:42:07.893Z,15.30
2019-05-06T14:44:45.919Z,15.20
2019-05-06T14:47:28.198Z,15.20
2019-05-06T14:50:05.796Z,15.20
2019-05-06T14:52:43.489Z,15.20
2019-05-06T14:55:32.604Z,15.20
2019-05-06T14:58:12.082Z,15.10
2019-05-06T15:00:53.204Z,15.10
2019-05-06T15:03:32.587Z,14.90
2019-05-06T15:06:13.947Z,15.00
2019-05-06T15:08:51.566Z,14.90
2019-05-06T15:11:32.456Z,14.80
2019-05-06T15:14:12.893Z,14.80
2019-05-06T15:16:52.941Z,14.80
2019-05-06T15:19:32.239Z,14.80
2019-05-06T15:22:09.724Z,14.90
2019-05-06T15:24:47.311Z,14.80
2019-05-06T15:27:25.104Z,14.80
2019-05-06T15:30:04.176Z,13.10
2019-05-06T15:32:42.969Z,14.70
2019-05-06T15:35:52.382Z,14.80
2019-05-06T15:38:32.228Z,14.70
2019-05-06T15:41:12.873Z,14.70
2019-05-06T15:43:50.815Z,14.60
2019-05-06T15:46:32.170Z,14.60
2019-05-06T15:49:13.103Z,14.60
2019-05-06T15:51:52.255Z,14.50
2019-05-06T15:54:29.464Z,14.40
2019-05-06T15:57:07.160Z,14.30
2019-05-06T15:59:44.698Z,14.50
2019-05-06T16:02:23.206Z,14.30
2019-05-06T16:05:11.564Z,14.20
2019-05-06T16:07:47.707Z,14.20
2019-05-06T16:10:27.660Z,14.00
2019-05-06T16:13:05.368Z,14.00
2019-05-06T16:15:43.269Z,14.00
2019-05-06T16:18:23.203Z,13.90
2019-05-06T16:21:00.091Z,13.90
2019-05-06T16:23:47.958Z,14.00
2019-05-06T16:26:27.941Z,13.80
2019-05-06T16:29:07.338Z,13.80
2019-05-06T16:31:46.700Z,13.90
2019-05-06T16:34:27.787Z,13.80
2019-05-06T16:37:07.842Z,13.80
2019-05-06T16:39:45.493Z,13.80
2019-05-06T16:42:26.947Z,13.80
2019-05-06T16:45:06.988Z,13.70
2019-05-06T16:50:22.596Z,13.60
2019-05-06T16:53:02.747Z,13.60
2019-05-06T16:58:54.609Z,13.70
2019-05-06T17:01:34.102Z,13.40
2019-05-06T17:04:34.150Z,13.60
2019-05-06T17:07:13.973Z,13.50
2019-05-06T17:09:53.599Z,13.50
2019-05-06T17:12:31.950Z,13.50
2019-05-06T17:15:10.429Z,13.50
2019-05-06T17:17:47.923Z,13.50
2019-05-06T17:20:26.019Z,13.50
2019-05-06T17:23:03.615Z,13.50
2019-05-06T17:25:45.318Z,13.40
2019-05-06T17:28:44.616Z,13.20
2019-05-06T17:31:47.649Z,13.50
2019-05-06T17:34:33.344Z,13.30
2019-05-06T17:37:28.307Z,13.40
2019-05-06T17:40:10.796Z,13.50
2019-05-06T17:42:46.956Z,13.30
2019-05-06T17:45:58.303Z,13.30
2019-05-06T17:48:42.433Z,13.30
2019-05-06T17:53:52.252Z,13.10
2019-05-06T17:56:31.755Z,13.30
2019-05-06T17:59:13.044Z,13.40
2019-05-06T18:04:29.057Z,13.10
2019-05-06T18:07:07.103Z,13.30
2019-05-06T18:09:45.934Z,13.30
2019-05-06T18:12:24.177Z,13.80
2019-05-06T18:15:03.413Z,13.30
2019-05-06T18:17:42.911Z,13.30
2019-05-06T18:20:22.150Z,13.20
2019-05-06T18:23:03.264Z,13.20
2019-05-06T18:25:43.070Z,13.20
2019-05-06T18:28:22.776Z,13.10
2019-05-06T18:31:03.147Z,13.20
2019-05-06T18:33:40.533Z,13.10
2019-05-06T18:36:18.227Z,13.20
2019-05-06T18:38:58.281Z,13.00
2019-05-06T18:41:35.872Z,13.00
2019-05-06T18:44:13.472Z,13.10
2019-05-06T18:46:52.865Z,13.10
2019-05-06T18:49:29.841Z,13.00
2019-05-06T18:52:09.302Z,12.90
2019-05-06T18:54:46.852Z,12.90
2019-05-06T18:57:24.461Z,12.90
2019-05-06T19:00:03.123Z,12.80
2019-05-06T19:02:42.321Z,11.20
2019-05-06T19:05:27.113Z,12.70
2019-05-06T19:08:05.194Z,12.70
2019-05-06T19:10:42.836Z,13.30
2019-05-06T19:13:22.352Z,12.70
2019-05-06T19:16:02.125Z,12.70
2019-05-06T19:18:42.625Z,12.80
2019-05-06T19:21:24.329Z,12.60
2019-05-06T19:24:02.784Z,12.50
2019-05-06T19:26:40.531Z,12.50
2019-05-06T19:29:18.145Z,12.60
2019-05-06T19:31:55.664Z,12.50
2019-05-06T19:34:36.847Z,12.50
2019-05-06T19:37:15.851Z,12.60
2019-05-06T19:39:53.477Z,12.50
2019-05-06T19:42:45.754Z,12.30
2019-05-06T19:45:12.964Z,12.30
2019-05-06T19:47:52.355Z,12.30
2019-05-06T19:50:32.979Z,12.40
2019-05-06T19:53:11.698Z,12.10
2019-05-06T19:55:50.304Z,12.40
2019-05-06T19:58:28.054Z,12.50
2019-05-06T20:01:06.824Z,12.40
2019-05-06T20:03:46.593Z,12.40
2019-05-06T20:06:41.533Z,12.70
2019-05-06T20:09:28.052Z,12.60
2019-05-06T20:12:12.153Z,12.70
2019-05-06T20:14:48.577Z,12.50
2019-05-06T20:17:28.718Z,12.60
2019-05-06T20:20:08.053Z,12.70
2019-05-06T20:22:47.635Z,12.50
2019-05-06T20:25:25.314Z,12.40
2019-05-06T20:28:02.918Z,12.40
2019-05-06T20:30:42.141Z,12.50
2019-05-06T20:33:19.207Z,12.40
2019-05-06T20:35:56.834Z,12.50
2019-05-06T20:38:35.701Z,12.50
2019-05-06T20:41:13.558Z,12.60
2019-05-06T20:43:51.225Z,12.50
2019-05-06T20:46:28.871Z,12.60
2019-05-06T20:49:08.212Z,12.60
2019-05-06T20:51:46.107Z,12.50
2019-05-06T20:54:24.961Z,12.50
2019-05-06T20:57:04.387Z,12.60
2019-05-06T20:59:42.193Z,12.60
2019-05-06T21:04:54.847Z,12.50
2019-05-06T21:07:33.050Z,12.50
2019-05-06T21:10:12.653Z,12.60
2019-05-06T21:12:50.429Z,12.50
2019-05-06T21:15:28.194Z,12.50
2019-05-06T21:18:05.785Z,12.70
2019-05-06T21:20:45.161Z,12.60
2019-05-06T21:23:22.816Z,12.50
2019-05-06T21:26:03.117Z,12.40
2019-05-06T21:28:39.207Z,12.40
2019-05-06T21:31:18.232Z,12.50
2019-05-06T21:33:57.582Z,12.60
2019-05-06T21:36:35.565Z,12.60
2019-05-06T21:39:14.223Z,12.50
2019-05-06T21:41:53.380Z,12.40
2019-05-06T21:44:33.292Z,12.50
2019-05-06T21:47:11.255Z,12.60
2019-05-06T21:49:53.364Z,12.80
2019-05-06T21:52:39.267Z,12.70
2019-05-06T21:55:13.432Z,12.70
2019-05-06T21:58:02.872Z,12.80
2019-05-06T22:00:45.528Z,12.90
2019-05-06T22:03:25.308Z,12.80
2019-05-06T22:06:02.968Z,13.00
2019-05-06T22:08:42.639Z,13.10
2019-05-06T22:11:20.307Z,13.30
2019-05-06T22:14:01.563Z,13.30
2019-05-06T22:16:39.527Z,13.30
2019-05-06T22:19:17.381Z,13.30
2019-05-06T22:22:04.804Z,13.40
2019-05-06T22:24:55.655Z,13.50
2019-05-06T22:27:32.962Z,13.60
2019-05-06T22:30:11.036Z,13.60
2019-05-06T22:32:52.694Z,13.60
2019-05-06T22:38:06.762Z,13.40
2019-05-06T22:43:21.861Z,13.60
2019-05-06T22:46:02.594Z,13.90
2019-05-06T22:48:43.363Z,14.10
2019-05-06T22:53:56.785Z,14.10
2019-05-06T22:56:38.384Z,14.00
2019-05-06T22:59:17.598Z,14.10
2019-05-06T23:02:13.146Z,14.50
2019-05-06T23:04:53.161Z,14.90
2019-05-06T23:10:11.176Z,14.40
2019-05-06T23:12:48.827Z,14.50
2019-05-06T23:15:28.541Z,14.60
2019-05-06T23:20:45.979Z,14.70
2019-05-06T23:23:25.618Z,14.40
2019-05-06T23:28:55.334Z,15.20
2019-05-06T23:31:33.363Z,15.00
2019-05-06T23:34:12.503Z,15.00
2019-05-06T23:37:26.341Z,15.00
2019-05-06T23:40:42.744Z,15.30
2019-05-06T23:43:52.051Z,15.40
2019-05-06T23:52:43.112Z,15.80
2019-05-06T23:55:52.157Z,15.50
2019-05-06T23:58:24.772Z,15.80
